createdAt,value
2018-06-16T00:01:26.594Z,9.90
2018-06-16T00:03:54.796Z,10.63
2018-06-16T00:06:23.052Z,10.53
2018-06-16T00:08:51.238Z,12.47
2018-06-16T00:11:19.462Z,10.37
2018-06-16T00:13:47.652Z,11.47
2018-06-16T00:16:15.887Z,10.30
2018-06-16T00:18:44.150Z,10.77
2018-06-16T00:21:12.358Z,10.60
2018-06-16T00:23:40.582Z,10.03
2018-06-16T00:26:08.738Z,10.55
2018-06-16T00:28:36.894Z,11.03
2018-06-16T00:31:05.069Z,10.23
2018-06-16T00:33:33.230Z,10.70
2018-06-16T00:36:01.439Z,11.23
2018-06-16T00:38:29.625Z,10.87
2018-06-16T00:40:57.835Z,10.03
2018-06-16T00:43:26.019Z,10.60
2018-06-16T00:45:54.227Z,9.77
2018-06-16T00:48:22.413Z,9.75
2018-06-16T00:50:50.605Z,9.50
2018-06-16T00:53:18.809Z,10.40
2018-06-16T00:55:47.007Z,10.90
2018-06-16T00:58:15.232Z,11.47
2018-06-16T01:00:43.414Z,11.10
2018-06-16T01:03:11.372Z,10.03
2018-06-16T01:05:39.567Z,11.00
2018-06-16T01:08:07.765Z,11.07
2018-06-16T01:10:35.978Z,10.15
2018-06-16T01:13:04.182Z,10.70
2018-06-16T01:15:32.387Z,11.20
2018-06-16T01:18:00.588Z,10.93
2018-06-16T01:20:28.849Z,9.88
2018-06-16T01:22:57.030Z,9.90
2018-06-16T01:25:25.015Z,9.50
2018-06-16T01:27:53.194Z,9.90
2018-06-16T01:30:21.415Z,10.40
2018-06-16T01:32:49.606Z,10.63
2018-06-16T01:35:17.852Z,10.80
2018-06-16T01:37:46.063Z,10.27
2018-06-16T01:40:14.260Z,10.50
2018-06-16T01:42:42.463Z,10.28
2018-06-16T01:45:10.655Z,10.30
2018-06-16T01:47:38.866Z,10.30
2018-06-16T01:50:07.062Z,9.60
2018-06-16T01:52:35.286Z,9.60
2018-06-16T01:55:03.490Z,10.30
2018-06-16T01:57:31.659Z,10.33
2018-06-16T01:59:59.877Z,10.30
2018-06-16T02:02:28.052Z,10.40
2018-06-16T02:04:56.268Z,9.48
2018-06-16T02:07:24.437Z,10.33
2018-06-16T02:09:52.627Z,11.13
2018-06-16T02:12:20.803Z,10.77
2018-06-16T02:14:50.635Z,10.70
2018-06-16T02:17:18.864Z,10.80
2018-06-16T02:19:47.073Z,11.57
2018-06-16T02:22:15.259Z,11.30
2018-06-16T02:24:43.458Z,11.00
2018-06-16T02:27:11.644Z,10.63
2018-06-16T02:29:39.841Z,11.10
2018-06-16T02:32:08.035Z,9.53
2018-06-16T02:34:36.225Z,9.53
2018-06-16T02:37:04.464Z,9.80
2018-06-16T02:39:32.434Z,9.27
2018-06-16T02:42:00.599Z,10.90
2018-06-16T02:44:28.786Z,9.40
2018-06-16T02:46:56.980Z,10.20
2018-06-16T02:49:25.190Z,11.28
2018-06-16T02:51:53.399Z,10.43
2018-06-16T02:54:21.391Z,10.37
2018-06-16T02:56:49.590Z,10.50
2018-06-16T02:59:18.225Z,10.95
2018-06-16T03:01:46.438Z,10.40
2018-06-16T03:04:14.630Z,9.83
2018-06-16T03:06:42.824Z,10.53
2018-06-16T03:09:11.080Z,10.60
2018-06-16T03:11:39.423Z,10.30
2018-06-16T03:14:07.608Z,10.87
2018-06-16T03:16:35.815Z,10.10
2018-06-16T03:19:04.024Z,10.67
2018-06-16T03:21:32.212Z,10.68
2018-06-16T03:24:00.411Z,10.23
2018-06-16T03:26:28.578Z,10.20
2018-06-16T03:28:56.801Z,10.27
2018-06-16T03:31:26.602Z,10.23
2018-06-16T03:33:54.833Z,9.40
2018-06-16T03:36:23.016Z,10.50
2018-06-16T03:38:51.222Z,10.23
2018-06-16T03:41:19.417Z,10.70
2018-06-16T03:43:47.622Z,9.90
2018-06-16T03:46:15.837Z,10.60
2018-06-16T03:48:44.007Z,10.40
2018-06-16T03:51:12.230Z,10.80
2018-06-16T03:53:40.466Z,11.30
2018-06-16T03:56:09.515Z,11.40
2018-06-16T03:58:37.728Z,10.30
2018-06-16T04:01:05.975Z,10.30
2018-06-16T04:03:34.164Z,10.77
2018-06-16T04:06:02.357Z,10.53
2018-06-16T04:08:30.563Z,10.47
2018-06-16T04:10:58.755Z,10.27
2018-06-16T04:13:26.962Z,10.50
2018-06-16T04:15:55.196Z,10.50
2018-06-16T04:18:23.398Z,10.70
2018-06-16T04:20:51.567Z,10.53
2018-06-16T04:23:19.757Z,11.00
2018-06-16T04:25:47.994Z,10.90
2018-06-16T04:28:16.203Z,11.23
2018-06-16T04:30:44.465Z,11.40
2018-06-16T04:33:12.712Z,10.50
2018-06-16T04:35:40.902Z,10.90
2018-06-16T04:38:09.109Z,10.53
2018-06-16T04:40:37.363Z,10.87
2018-06-16T04:43:05.649Z,10.20
2018-06-16T04:45:33.924Z,10.23
2018-06-16T04:48:02.082Z,9.93
2018-06-16T04:50:30.258Z,9.53
2018-06-16T04:52:58.537Z,10.60
2018-06-16T04:55:26.747Z,10.80
2018-06-16T04:57:54.991Z,11.83
2018-06-16T05:00:23.230Z,11.20
2018-06-16T05:02:51.414Z,11.43
2018-06-16T05:05:19.622Z,12.70
2018-06-16T05:07:47.903Z,11.53
2018-06-16T05:10:16.115Z,10.53
2018-06-16T05:12:44.361Z,11.50
2018-06-16T05:15:12.568Z,11.80
2018-06-16T05:17:40.823Z,12.07
2018-06-16T05:20:09.108Z,12.00
2018-06-16T05:22:37.332Z,12.90
2018-06-16T05:25:05.612Z,12.20
2018-06-16T05:27:33.820Z,12.33
2018-06-16T05:30:02.001Z,11.10
2018-06-16T05:32:30.245Z,12.57
2018-06-16T05:34:58.446Z,11.93
2018-06-16T05:37:26.675Z,11.90
2018-06-16T05:39:55.129Z,12.90
2018-06-16T05:42:23.341Z,12.77
2018-06-16T05:44:51.565Z,14.07
2018-06-16T05:47:19.809Z,12.63
2018-06-16T05:49:47.995Z,12.87
2018-06-16T05:52:16.171Z,13.10
2018-06-16T05:54:44.362Z,13.72
2018-06-16T05:57:12.542Z,13.50
2018-06-16T05:59:40.752Z,12.20
2018-06-16T06:02:08.942Z,13.47
2018-06-16T06:04:37.214Z,12.80
2018-06-16T06:07:05.427Z,13.00
2018-06-16T06:09:33.603Z,13.43
2018-06-16T06:12:01.813Z,13.07
2018-06-16T06:14:30.011Z,13.83
2018-06-16T06:16:58.218Z,13.38
2018-06-16T06:19:26.426Z,13.97
2018-06-16T06:21:54.646Z,14.10
2018-06-16T06:24:22.873Z,13.13
2018-06-16T06:26:51.098Z,13.13
2018-06-16T06:29:19.290Z,14.30
2018-06-16T06:31:47.499Z,13.93
2018-06-16T06:34:15.750Z,12.50
2018-06-16T06:36:43.954Z,13.80
2018-06-16T06:39:12.234Z,13.43
2018-06-16T06:41:40.441Z,12.30
2018-06-16T06:44:08.410Z,13.40
2018-06-16T06:46:36.653Z,12.13
2018-06-16T06:49:04.862Z,13.57
2018-06-16T06:51:33.071Z,11.63
2018-06-16T06:54:01.257Z,12.00
2018-06-16T06:56:29.519Z,11.30
2018-06-16T06:58:58.431Z,11.30
2018-06-16T07:01:26.626Z,10.82
2018-06-16T07:03:54.849Z,10.53
2018-06-16T07:06:23.068Z,9.80
2018-06-16T07:08:51.298Z,9.00
2018-06-16T07:11:19.514Z,8.73
2018-06-16T07:13:47.736Z,8.73
2018-06-16T07:16:15.882Z,7.53
2018-06-16T07:18:44.205Z,7.50
2018-06-16T07:21:12.395Z,9.00
2018-06-16T07:23:40.563Z,7.77
2018-06-16T07:26:08.728Z,8.50
2018-06-16T07:28:36.950Z,8.60
2018-06-16T07:31:05.164Z,8.33
2018-06-16T07:33:33.366Z,8.75
2018-06-16T07:36:01.541Z,8.60
2018-06-16T07:38:29.734Z,8.30
2018-06-16T07:40:57.940Z,7.43
2018-06-16T07:43:26.121Z,8.70
2018-06-16T07:45:54.317Z,8.03
2018-06-16T07:48:22.241Z,7.80
2018-06-16T07:50:50.459Z,7.20
2018-06-16T07:53:18.392Z,7.80
2018-06-16T07:55:46.559Z,7.90
2018-06-16T07:58:14.757Z,7.57
2018-06-16T08:00:42.962Z,6.97
2018-06-16T08:03:11.175Z,7.17
2018-06-16T08:05:39.655Z,6.90
2018-06-16T08:08:07.827Z,7.70
2018-06-16T08:10:36.035Z,7.47
2018-06-16T08:13:04.206Z,7.87
2018-06-16T08:15:32.408Z,9.00
2018-06-16T08:18:00.386Z,8.53
2018-06-16T08:20:28.542Z,8.10
2018-06-16T08:22:56.505Z,7.63
2018-06-16T08:25:24.720Z,7.60
2018-06-16T08:27:52.931Z,6.63
2018-06-16T08:30:21.110Z,6.10
2018-06-16T08:32:49.315Z,5.57
2018-06-16T08:35:17.488Z,5.17
2018-06-16T08:37:45.689Z,5.27
2018-06-16T08:40:13.968Z,6.20
2018-06-16T08:42:42.153Z,6.10
2018-06-16T08:45:10.427Z,5.67
2018-06-16T08:47:38.606Z,6.23
2018-06-16T08:50:06.815Z,7.12
2018-06-16T08:52:35.195Z,5.83
2018-06-16T08:55:03.374Z,5.90
2018-06-16T08:57:31.566Z,6.10
2018-06-16T08:59:59.763Z,5.50
2018-06-16T09:02:28.018Z,5.93
2018-06-16T09:04:56.218Z,5.53
2018-06-16T09:07:24.376Z,5.40
2018-06-16T09:09:52.738Z,6.17
2018-06-16T09:12:20.936Z,5.80
2018-06-16T09:14:49.124Z,6.40
2018-06-16T09:17:17.471Z,5.57
2018-06-16T09:19:45.639Z,5.00
2018-06-16T09:22:13.970Z,5.40
2018-06-16T09:24:42.155Z,5.10
2018-06-16T09:27:10.386Z,4.90
2018-06-16T09:29:38.364Z,5.47
2018-06-16T09:32:06.546Z,5.97
2018-06-16T09:34:34.535Z,4.53
2018-06-16T09:37:02.727Z,5.13
2018-06-16T09:39:30.941Z,4.67
2018-06-16T09:41:59.193Z,4.40
2018-06-16T09:44:28.590Z,4.80
2018-06-16T09:46:56.829Z,5.13
2018-06-16T09:49:24.999Z,5.27
2018-06-16T09:51:53.190Z,4.97
2018-06-16T09:54:21.343Z,5.27
2018-06-16T09:56:49.595Z,5.07
2018-06-16T09:59:17.811Z,5.37
2018-06-16T10:01:45.958Z,5.07
2018-06-16T10:04:14.215Z,4.60
2018-06-16T10:06:42.201Z,4.77
2018-06-16T10:09:10.858Z,29.93
2018-06-16T10:11:39.319Z,5.30
2018-06-16T10:14:07.727Z,4.80
2018-06-16T10:16:35.942Z,5.00
2018-06-16T10:19:04.140Z,4.67
2018-06-16T10:21:32.350Z,4.20
2018-06-16T10:24:00.300Z,3.93
2018-06-16T10:26:28.577Z,4.63
2018-06-16T10:28:56.817Z,4.72
2018-06-16T10:31:24.951Z,5.20
2018-06-16T10:33:53.462Z,5.17
2018-06-16T10:36:21.707Z,5.23
2018-06-16T10:38:49.918Z,4.67
2018-06-16T10:41:18.101Z,4.90
2018-06-16T10:43:46.322Z,5.30
2018-06-16T10:46:14.477Z,5.23
2018-06-16T10:48:42.635Z,5.53
2018-06-16T10:51:10.842Z,4.62
2018-06-16T10:53:38.983Z,4.47
2018-06-16T10:56:07.234Z,4.70
2018-06-16T10:58:35.406Z,4.63
2018-06-16T11:01:04.515Z,5.20
2018-06-16T11:03:32.710Z,5.33
2018-06-16T11:06:00.900Z,5.10
2018-06-16T11:08:29.091Z,4.90
2018-06-16T11:10:57.338Z,4.27
2018-06-16T11:13:25.490Z,4.80
2018-06-16T11:15:53.832Z,4.57
2018-06-16T11:18:21.994Z,5.20
2018-06-16T11:20:50.223Z,5.17
2018-06-16T11:23:18.443Z,5.53
2018-06-16T11:25:46.594Z,5.77
2018-06-16T11:28:14.828Z,5.20
2018-06-16T11:30:42.999Z,5.00
2018-06-16T11:33:17.630Z,5.17
2018-06-16T11:35:45.856Z,5.33
2018-06-16T11:38:14.150Z,4.43
2018-06-16T11:40:42.474Z,4.30
2018-06-16T11:43:10.679Z,4.60
2018-06-16T11:45:38.887Z,5.50
2018-06-16T11:48:07.196Z,4.93
2018-06-16T11:50:35.398Z,4.77
2018-06-16T11:53:03.575Z,5.33
2018-06-16T11:55:31.815Z,5.07
2018-06-16T11:57:59.975Z,4.53
2018-06-16T12:00:28.164Z,5.07
2018-06-16T12:02:56.310Z,5.07
2018-06-16T12:05:24.458Z,5.63
2018-06-16T12:07:52.454Z,6.13
2018-06-16T12:10:20.700Z,5.00
2018-06-16T12:12:48.812Z,4.90
2018-06-16T12:15:16.979Z,4.93
2018-06-16T12:17:45.124Z,5.50
2018-06-16T12:20:13.339Z,5.73
2018-06-16T12:22:41.482Z,4.40
2018-06-16T12:25:09.798Z,4.40
2018-06-16T12:27:37.990Z,3.40
2018-06-16T12:30:06.418Z,5.10
2018-06-16T12:32:34.623Z,5.63
2018-06-16T12:35:02.863Z,5.30
2018-06-16T12:37:31.090Z,5.07
2018-06-16T12:39:59.249Z,4.78
2018-06-16T12:42:27.462Z,4.40
2018-06-16T12:44:55.789Z,4.63
2018-06-16T12:47:23.946Z,4.30
2018-06-16T12:49:51.935Z,4.73
2018-06-16T12:52:20.136Z,3.63
2018-06-16T12:54:48.325Z,3.57
2018-06-16T12:57:16.562Z,4.27
2018-06-16T12:59:44.728Z,4.03
2018-06-16T13:02:13.006Z,4.42
2018-06-16T13:04:50.993Z,4.70
2018-06-16T13:07:18.918Z,3.57
2018-06-16T13:09:47.114Z,3.30
2018-06-16T13:12:15.343Z,3.50
2018-06-16T13:14:43.556Z,4.37
2018-06-16T13:17:11.764Z,4.30
2018-06-16T13:19:39.947Z,3.97
2018-06-16T13:22:08.124Z,3.80
2018-06-16T13:24:36.309Z,3.97
2018-06-16T13:27:04.598Z,3.97
2018-06-16T13:29:32.814Z,4.17
2018-06-16T13:32:01.086Z,4.03
2018-06-16T13:34:29.343Z,3.80
2018-06-16T13:36:57.623Z,4.00
2018-06-16T13:39:25.869Z,3.83
2018-06-16T13:41:54.086Z,4.00
2018-06-16T13:44:22.305Z,5.13
2018-06-16T13:46:50.522Z,4.83
2018-06-16T13:49:18.745Z,4.10
2018-06-16T13:51:46.911Z,3.43
2018-06-16T13:54:15.115Z,4.23
2018-06-16T13:56:43.384Z,4.37
2018-06-16T13:59:11.529Z,3.90
2018-06-16T14:01:39.498Z,3.30
2018-06-16T14:04:07.646Z,4.20
2018-06-16T14:06:35.889Z,3.95
2018-06-16T14:09:06.242Z,3.60
2018-06-16T14:11:34.479Z,4.33
2018-06-16T14:14:02.632Z,4.60
2018-06-16T14:16:30.807Z,4.50
2018-06-16T14:18:59.015Z,4.43
2018-06-16T14:21:27.022Z,3.77
2018-06-16T14:23:55.173Z,4.70
2018-06-16T14:26:23.331Z,7.13
2018-06-16T14:28:51.555Z,3.95
2018-06-16T14:31:19.774Z,3.93
2018-06-16T14:33:48.019Z,4.30
2018-06-16T14:36:16.291Z,4.33
2018-06-16T14:39:07.664Z,4.55
2018-06-16T14:41:35.857Z,4.13
2018-06-16T14:44:04.019Z,3.90
2018-06-16T14:46:32.271Z,4.13
2018-06-16T14:49:00.501Z,4.22
2018-06-16T14:51:28.651Z,4.27
2018-06-16T14:53:57.122Z,4.23
2018-06-16T14:56:25.471Z,3.83
2018-06-16T14:58:54.546Z,4.20
2018-06-16T15:01:22.734Z,3.83
2018-06-16T15:03:51.043Z,3.63
2018-06-16T15:06:19.286Z,4.03
2018-06-16T15:08:47.496Z,3.53
2018-06-16T15:11:15.661Z,4.10
2018-06-16T15:13:43.954Z,4.23
2018-06-16T15:16:12.193Z,4.63
2018-06-16T15:18:40.373Z,4.17
2018-06-16T15:21:08.575Z,4.73
2018-06-16T15:23:36.770Z,4.80
2018-06-16T15:26:04.970Z,4.10
2018-06-16T15:28:32.923Z,4.93
2018-06-16T15:31:01.108Z,4.30
2018-06-16T15:33:29.062Z,4.20
2018-06-16T15:35:57.254Z,4.10
2018-06-16T15:38:25.614Z,4.20
2018-06-16T15:40:53.805Z,4.90
2018-06-16T15:43:21.983Z,4.97
2018-06-16T15:45:50.328Z,4.30
2018-06-16T15:48:18.744Z,4.87
2018-06-16T15:50:46.902Z,4.13
2018-06-16T15:53:15.104Z,4.33
2018-06-16T15:55:43.297Z,4.23
2018-06-16T15:58:11.476Z,5.03
2018-06-16T16:00:39.662Z,5.77
2018-06-16T16:03:07.862Z,4.60
2018-06-16T16:05:36.086Z,4.20
2018-06-16T16:08:04.430Z,4.50
2018-06-16T16:10:32.642Z,5.43
2018-06-16T16:13:00.820Z,4.70
2018-06-16T16:15:29.090Z,5.17
2018-06-16T16:17:57.307Z,4.53
2018-06-16T16:20:25.596Z,5.20
2018-06-16T16:22:53.829Z,5.03
2018-06-16T16:25:22.135Z,4.70
2018-06-16T16:27:50.461Z,5.03
2018-06-16T16:30:18.626Z,5.57
2018-06-16T16:32:46.815Z,5.30
2018-06-16T16:35:15.015Z,5.10
2018-06-16T16:37:43.224Z,5.43
2018-06-16T16:40:11.512Z,4.30
2018-06-16T16:42:39.663Z,4.77
2018-06-16T16:45:08.097Z,4.10
2018-06-16T16:47:36.342Z,4.60
2018-06-16T16:50:04.523Z,4.30
2018-06-16T16:52:32.718Z,5.60
2018-06-16T16:55:00.626Z,4.93
2018-06-16T16:57:28.845Z,5.63
2018-06-16T16:59:57.007Z,4.92
2018-06-16T17:02:25.206Z,5.67
2018-06-16T17:04:53.404Z,5.90
2018-06-16T17:07:21.552Z,6.20
2018-06-16T17:09:49.740Z,6.30
2018-06-16T17:12:17.910Z,5.40
2018-06-16T17:14:46.078Z,5.47
2018-06-16T17:17:14.284Z,6.67
2018-06-16T17:19:42.459Z,6.77
2018-06-16T17:22:10.714Z,12.35
2018-06-16T17:24:38.911Z,5.63
2018-06-16T17:27:07.095Z,4.60
2018-06-16T17:29:35.299Z,4.97
2018-06-16T17:32:03.507Z,5.17
2018-06-16T17:34:31.675Z,5.37
2018-06-16T17:36:59.887Z,5.07
2018-06-16T17:39:28.111Z,5.60
2018-06-16T17:41:56.283Z,5.10
2018-06-16T17:44:24.505Z,4.97
2018-06-16T17:46:52.655Z,5.27
2018-06-16T17:49:20.845Z,5.53
2018-06-16T17:51:49.062Z,5.60
2018-06-16T17:54:17.288Z,5.30
2018-06-16T17:56:47.571Z,6.80
2018-06-16T17:59:15.738Z,5.07
2018-06-16T18:01:43.887Z,5.63
2018-06-16T18:04:12.063Z,5.87
2018-06-16T18:06:40.257Z,7.30
2018-06-16T18:09:10.177Z,6.33
2018-06-16T18:11:38.495Z,5.80
2018-06-16T18:14:06.830Z,5.70
2018-06-16T18:16:35.078Z,5.83
2018-06-16T18:19:03.247Z,5.13
2018-06-16T18:21:31.804Z,6.00
2018-06-16T18:24:00.039Z,5.63
2018-06-16T18:26:28.226Z,6.03
2018-06-16T18:28:56.454Z,5.80
2018-06-16T18:31:24.701Z,5.40
2018-06-16T18:33:52.874Z,5.47
2018-06-16T18:36:21.060Z,5.43
2018-06-16T18:38:49.248Z,5.65
2018-06-16T18:41:17.452Z,6.03
2018-06-16T18:43:45.679Z,6.00
2018-06-16T18:46:13.854Z,5.80
2018-06-16T18:48:42.047Z,6.50
2018-06-16T18:51:10.260Z,6.33
2018-06-16T18:53:38.449Z,5.93
2018-06-16T18:56:06.431Z,5.83
2018-06-16T18:58:34.577Z,5.87
2018-06-16T19:01:02.757Z,5.53
2018-06-16T19:03:30.923Z,5.90
2018-06-16T19:05:59.295Z,5.87
2018-06-16T19:08:27.483Z,5.97
2018-06-16T19:10:55.730Z,5.87
2018-06-16T19:13:23.871Z,5.80
2018-06-16T19:15:52.088Z,5.47
2018-06-16T19:18:20.247Z,6.60
2018-06-16T19:20:48.601Z,6.30
2018-06-16T19:23:16.892Z,6.37
2018-06-16T19:25:44.813Z,5.67
2018-06-16T19:28:13.038Z,5.90
2018-06-16T19:30:41.235Z,6.27
2018-06-16T19:33:09.456Z,6.23
2018-06-16T19:35:37.615Z,5.90
2018-06-16T19:38:05.820Z,6.57
2018-06-16T19:40:33.730Z,6.00
2018-06-16T19:43:01.927Z,6.10
2018-06-16T19:45:30.087Z,5.87
2018-06-16T19:47:58.268Z,6.00
2018-06-16T19:50:26.422Z,6.33
2018-06-16T19:52:54.594Z,6.17
2018-06-16T19:55:22.766Z,7.35
2018-06-16T19:57:51.214Z,7.40
2018-06-16T20:00:19.427Z,6.93
2018-06-16T20:02:47.648Z,11.70
2018-06-16T20:05:15.851Z,9.30
2018-06-16T20:07:44.038Z,13.33
2018-06-16T20:10:12.251Z,31.00
2018-06-16T20:12:40.527Z,27.23
2018-06-16T20:15:08.682Z,9.73
2018-06-16T20:17:36.850Z,6.08
2018-06-16T20:20:07.090Z,6.30
2018-06-16T20:22:35.310Z,6.30
2018-06-16T20:25:03.777Z,6.30
2018-06-16T20:27:31.945Z,6.10
2018-06-16T20:29:59.864Z,6.13
2018-06-16T20:32:28.051Z,6.10
2018-06-16T20:34:56.243Z,6.30
2018-06-16T20:37:24.485Z,6.27
2018-06-16T20:39:52.730Z,5.55
2018-06-16T20:42:20.999Z,6.80
2018-06-16T20:44:49.255Z,6.60
2018-06-16T20:47:17.516Z,6.57
2018-06-16T20:49:45.783Z,6.80
2018-06-16T20:52:14.019Z,6.97
2018-06-16T20:54:42.320Z,6.73
2018-06-16T20:57:10.452Z,6.10
2018-06-16T20:59:39.664Z,6.50
2018-06-16T21:02:07.809Z,6.33
2018-06-16T21:04:36.019Z,7.13
2018-06-16T21:07:04.214Z,6.53
2018-06-16T21:09:32.423Z,7.37
2018-06-16T21:12:00.383Z,7.33
2018-06-16T21:14:28.578Z,8.10
2018-06-16T21:16:56.562Z,6.87
2018-06-16T21:19:24.892Z,6.50
2018-06-16T21:21:53.079Z,7.70
2018-06-16T21:24:21.271Z,6.90
2018-06-16T21:26:49.202Z,7.50
2018-06-16T21:29:17.370Z,6.80
2018-06-16T21:31:45.540Z,7.30
2018-06-16T21:34:13.741Z,7.23
2018-06-16T21:36:41.878Z,6.73
2018-06-16T21:39:10.718Z,6.77
2018-06-16T21:41:39.024Z,7.57
2018-06-16T21:49:07.576Z,7.03
2018-06-16T21:51:35.727Z,6.47
2018-06-16T21:54:03.968Z,7.40
2018-06-16T21:56:32.128Z,7.10
2018-06-16T21:59:00.286Z,7.43
2018-06-16T22:01:30.818Z,7.17
2018-06-16T22:03:59.371Z,7.73
2018-06-16T22:06:27.532Z,6.97
2018-06-16T22:08:55.704Z,7.70
2018-06-16T22:11:23.858Z,7.87
2018-06-16T22:13:52.202Z,7.80
2018-06-16T22:16:20.352Z,7.23
2018-06-16T22:18:48.547Z,7.33
2018-06-16T22:21:16.690Z,6.80
2018-06-16T22:23:44.910Z,7.73
2018-06-16T22:26:13.082Z,7.20
2018-06-16T22:28:45.100Z,7.90
2018-06-16T22:31:13.317Z,8.00
2018-06-16T22:33:41.470Z,8.20
2018-06-16T22:36:09.645Z,8.10
2018-06-16T22:38:37.778Z,8.90
2018-06-16T22:41:05.955Z,8.50
2018-06-16T22:43:34.114Z,8.70
2018-06-16T22:46:02.292Z,8.57
2018-06-16T22:48:30.548Z,8.90
2018-06-16T22:50:58.706Z,8.50
2018-06-16T22:53:27.132Z,8.93
2018-06-16T22:55:55.283Z,8.90
2018-06-16T22:58:23.555Z,9.67
2018-06-16T23:00:51.509Z,9.53
2018-06-16T23:03:19.690Z,8.87
2018-06-16T23:05:47.878Z,9.47
2018-06-16T23:08:16.430Z,8.67
2018-06-16T23:10:44.624Z,9.67
2018-06-16T23:13:12.827Z,9.20
2018-06-16T23:15:40.992Z,8.23
2018-06-16T23:18:09.160Z,8.23
2018-06-16T23:20:37.339Z,7.60
2018-06-16T23:23:05.491Z,7.50
2018-06-16T23:25:33.700Z,6.90
2018-06-16T23:28:01.869Z,7.47
2018-06-16T23:30:30.091Z,6.30
2018-06-16T23:32:59.510Z,7.35
2018-06-16T23:35:27.685Z,7.10
2018-06-16T23:37:55.834Z,7.80
2018-06-16T23:40:24.058Z,8.13
2018-06-16T23:42:52.200Z,8.70
2018-06-16T23:45:20.381Z,10.08
2018-06-16T23:47:48.587Z,10.40
2018-06-16T23:50:16.759Z,10.30
2018-06-16T23:52:44.907Z,9.97
2018-06-16T23:55:13.071Z,9.83
2018-06-16T23:57:41.327Z,8.67
